Time;durP1;ratioP1;P1;durP2;ratioP2;P2;SDS_P1;SDS_P2;PMS_P1;PMS_P2;Temp;Humidity;BMP_temperature;BMP_pressure;BME280_temperature;BME280_humidity;BME280_pressure;Samples;Min_cycle;Max_cycle;Signal;HPM_P1;HPM_P2
2022/01/13 00:02:02;;;;;;;98.22;30.55;;;;;;;1.30;100.00;104137.50;5004572;28;20393;-61
2022/01/13 00:04:27;;;;;;;103.00;28.65;;;;;;;1.26;100.00;104138.63;5001027;28;20493;-60
2022/01/13 00:06:52;;;;;;;109.47;30.77;;;;;;;1.23;100.00;104138.81;5003878;28;20038;-60
2022/01/13 00:09:18;;;;;;;94.30;29.13;;;;;;;1.24;100.00;104135.16;5002368;28;20137;-60
2022/01/13 00:11:46;;;;;;;100.05;28.98;;;;;;;1.25;100.00;104136.91;5004634;28;20691;-60
2022/01/13 00:17:07;;;;;;;91.70;30.17;;;;;;;1.28;100.00;104136.72;4988541;28;19918;-61
2022/01/13 00:22:16;;;;;;;86.28;27.58;;;;;;;1.37;100.00;104141.63;5003545;28;20038;-61
2022/01/13 00:24:44;;;;;;;86.30;29.15;;;;;;;1.27;100.00;104143.09;5002495;28;20148;-60
2022/01/13 00:27:12;;;;;;;76.85;28.60;;;;;;;1.29;100.00;104146.59;5005261;28;20440;-61
2022/01/13 00:29:43;;;;;;;;;;;;;;;1.35;100.00;104142.66;5004761;28;20041;-61
2022/01/13 00:32:09;;;;;;;84.32;30.55;;;;;;;1.25;100.00;104148.59;5003276;28;19917;-61
2022/01/13 00:34:35;;;;;;;88.03;31.50;;;;;;;1.26;100.00;104152.16;5002574;28;20563;-61
2022/01/13 00:37:00;;;;;;;78.93;28.17;;;;;;;1.27;100.00;104143.97;4987004;28;20030;-60
2022/01/13 00:39:25;;;;;;;97.32;27.83;;;;;;;1.23;100.00;104138.81;5002649;28;20037;-61
2022/01/13 00:41:51;;;;;;;101.35;27.42;;;;;;;1.22;100.00;104137.09;5002749;28;20073;-61
2022/01/13 00:44:20;;;;;;;85.28;29.60;;;;;;;1.20;100.00;104134.44;5001136;28;20037;-61
2022/01/13 00:46:56;;;;;;;96.28;29.23;;;;;;;1.19;100.00;104124.59;5004159;28;20042;-60
2022/01/13 00:49:22;;;;;;;82.70;27.92;;;;;;;1.18;100.00;104125.56;5002684;28;20104;-60
2022/01/13 00:51:48;;;;;;;88.57;28.35;;;;;;;1.16;100.00;104116.63;5004701;28;20390;-60
2022/01/13 00:54:14;;;;;;;71.75;27.50;;;;;;;1.18;100.00;104113.84;5001788;28;20084;-60
2022/01/13 00:56:40;;;;;;;77.05;29.00;;;;;;;1.21;100.00;104114.53;5003960;28;20030;-61
2022/01/13 00:59:09;;;;;;;91.65;28.45;;;;;;;1.19;100.00;104115.59;5002699;28;20049;-61
2022/01/13 01:01:39;;;;;;;109.40;27.30;;;;;;;1.17;100.00;104107.56;5004045;28;20022;-60
2022/01/13 01:04:06;;;;;;;81.85;26.67;;;;;;;1.17;100.00;104101.28;4996108;28;20375;-61
2022/01/13 01:06:32;;;;;;;93.05;31.55;;;;;;;1.17;100.00;104110.28;4998444;28;20029;-62
2022/01/13 01:08:58;;;;;;;69.00;25.38;;;;;;;1.17;100.00;104112.13;5002912;28;20108;-61
2022/01/13 01:11:26;;;;;;;81.13;25.63;;;;;;;1.14;100.00;104120.41;5003852;28;20037;-61
2022/01/13 01:13:52;;;;;;;78.05;27.45;;;;;;;1.12;100.00;104114.22;5001753;28;20030;-60
2022/01/13 01:16:18;;;;;;;69.75;23.90;;;;;;;1.12;100.00;104114.22;5003627;28;20161;-60
2022/01/13 01:21:33;;;;;;;85.25;27.77;;;;;;;1.11;100.00;104107.91;5002750;28;20089;-61
2022/01/13 01:26:41;;;;;;;82.68;26.00;;;;;;;1.12;100.00;104111.50;5001710;28;20480;-60
2022/01/13 01:29:23;;;;;;;72.18;24.92;;;;;;;1.14;100.00;104112.28;5002264;28;20026;-60
2022/01/13 01:31:51;;;;;;;71.93;23.85;;;;;;;1.25;100.00;104107.97;5004059;28;20404;-60
2022/01/13 01:34:49;;;;;;;80.97;24.85;;;;;;;1.17;100.00;104115.69;4997968;28;20038;-60
2022/01/13 01:37:17;;;;;;;;;;;;;;;1.20;100.00;104117.34;5003064;28;20041;-60
2022/01/13 01:39:44;;;;;;;79.45;23.45;;;;;;;1.17;100.00;104109.41;5001612;28;19917;-60
2022/01/13 01:42:10;;;;;;;90.47;25.80;;;;;;;1.18;100.00;104116.56;5000488;28;20065;-61
2022/01/13 01:44:40;;;;;;;77.97;24.77;;;;;;;1.21;100.00;104114.53;5002150;28;20025;-60
2022/01/13 01:47:08;;;;;;;76.85;25.33;;;;;;;1.18;100.00;104108.44;5003704;28;20384;-61
2022/01/13 01:49:39;;;;;;;69.78;27.25;;;;;;;1.19;100.00;104110.19;5003433;28;20014;-61
2022/01/13 01:52:05;;;;;;;66.03;27.38;;;;;;;1.19;100.00;104110.19;5002716;28;20397;-61
2022/01/13 01:54:30;;;;;;;77.85;25.17;;;;;;;1.21;100.00;104108.25;4996729;28;20061;-60
2022/01/13 01:56:56;;;;;;;70.78;23.13;;;;;;;1.20;100.00;104106.50;5001820;28;20033;-60
2022/01/13 01:59:27;;;;;;;66.22;22.33;;;;;;;1.21;100.00;104102.81;5000962;28;20477;-60
2022/01/13 02:01:53;;;;;;;85.20;24.00;;;;;;;1.18;100.00;104103.91;5002432;28;20038;-61
2022/01/13 02:04:20;;;;;;;77.40;22.20;;;;;;;1.24;100.00;104102.66;5000246;28;20444;-60
2022/01/13 02:06:46;;;;;;;81.18;23.17;;;;;;;1.21;100.00;104105.53;5001727;28;20357;-60
2022/01/13 02:09:15;;;;;;;63.50;23.85;;;;;;;1.16;100.00;104104.94;5001187;28;20022;-61
2022/01/13 02:11:46;;;;;;;94.68;24.88;;;;;;;1.15;100.00;104106.75;5001062;28;20036;-61
2022/01/13 02:16:52;;;;;;;74.68;22.73;;;;;;;1.11;100.00;104107.91;5001662;28;20132;-61
2022/01/13 02:19:19;;;;;;;77.82;21.35;;;;;;;1.12;100.00;104108.81;5001773;28;20025;-60
2022/01/13 02:21:45;;;;;;;78.00;23.70;;;;;;;1.10;100.00;104108.88;5002103;28;20030;-60
2022/01/13 02:24:10;;;;;;;83.03;23.30;;;;;;;1.09;100.00;104107.13;5001420;28;20112;-61
2022/01/13 02:26:36;;;;;;;69.65;22.40;;;;;;;1.11;100.00;104115.16;5001330;28;20026;-61
2022/01/13 02:29:01;;;;;;;93.68;22.95;;;;;;;1.10;100.00;104108.00;5002430;28;20036;-61
2022/01/13 02:31:27;;;;;;;74.75;22.58;;;;;;;1.07;100.00;104113.59;5002971;28;20018;-60
2022/01/13 02:33:53;;;;;;;61.63;22.08;;;;;;;1.08;100.00;104110.81;4993223;28;20034;-60
2022/01/13 02:36:20;;;;;;;79.32;23.30;;;;;;;1.07;100.00;104117.19;5000723;28;20056;-60
2022/01/13 02:38:53;;;;;;;71.07;21.85;;;;;;;1.11;100.00;104120.56;5000814;28;20400;-61
2022/01/13 02:41:19;;;;;;;60.15;21.95;;;;;;;1.11;100.00;104112.44;5002264;28;20108;-61
2022/01/13 02:43:46;;;;;;;79.60;22.50;;;;;;;1.11;100.00;104110.59;5001342;28;20117;-61
2022/01/13 02:49:07;;;;;;;78.13;22.33;;;;;;;1.06;100.00;104111.84;4995385;28;20042;-62
2022/01/13 02:51:33;;;;;;;77.20;23.45;;;;;;;1.05;100.00;104100.13;5000677;28;20045;-61
2022/01/13 02:53:59;;;;;;;82.05;20.98;;;;;;;1.07;100.00;104111.78;5002238;28;20041;-60
2022/01/13 02:56:25;;;;;;;72.38;23.00;;;;;;;1.06;100.00;104110.00;5002635;28;20026;-60
2022/01/13 02:58:50;;;;;;;70.60;21.50;;;;;;;1.06;100.00;104110.00;5001317;28;20044;-61
2022/01/13 03:01:16;;;;;;;73.15;23.33;;;;;;;1.07;100.00;104113.59;5000615;28;20034;-60
2022/01/13 03:06:11;;;;;;;66.63;22.00;;;;;;;1.01;100.00;104107.59;5011515;23;20116;-61
2022/01/13 03:08:41;;;;;;;84.93;22.08;;;;;;;1.01;100.00;104106.69;5005369;28;20021;-60
2022/01/13 03:11:06;;;;;;;71.55;22.40;;;;;;;0.97;100.00;104107.84;5004932;28;20789;-60
2022/01/13 03:13:31;;;;;;;75.53;22.52;;;;;;;0.99;100.00;104106.78;5005384;28;20100;-61
2022/01/13 03:15:57;;;;;;;99.75;25.15;;;;;;;0.99;100.00;104106.78;5006964;28;20025;-60
2022/01/13 03:18:22;;;;;;;73.22;23.00;;;;;;;0.98;100.00;104102.34;5005196;28;20033;-60
2022/01/13 03:20:47;;;;;;;85.95;24.33;;;;;;;0.97;100.00;104114.13;5005918;28;20433;-60
2022/01/13 03:23:17;;;;;;;74.95;22.98;;;;;;;0.96;100.00;104109.69;5004216;28;20042;-61
2022/01/13 03:25:45;;;;;;;88.90;21.83;;;;;;;0.99;100.00;104097.78;4998932;28;20140;-60
2022/01/13 03:28:15;;;;;;;71.38;20.92;;;;;;;0.98;100.00;104088.81;5005150;28;20038;-61
2022/01/13 03:30:41;;;;;;;67.78;21.10;;;;;;;0.97;100.00;104088.91;5006391;28;20109;-60
2022/01/13 03:33:07;;;;;;;75.78;20.80;;;;;;;0.95;100.00;104090.81;5005210;28;20113;-61
2022/01/13 03:35:33;;;;;;;86.93;24.40;;;;;;;0.95;100.00;104082.69;5004729;28;20034;-61
2022/01/13 03:37:58;;;;;;;96.35;23.15;;;;;;;0.99;100.00;104085.13;5004351;28;20084;-60
2022/01/13 03:40:25;;;;;;;88.18;22.73;;;;;;;0.96;100.00;104084.44;5005310;28;20099;-60
2022/01/13 03:42:53;;;;;;;85.55;25.75;;;;;;;0.93;100.00;104080.06;5005938;28;20058;-61
2022/01/13 03:45:19;;;;;;;93.75;23.08;;;;;;;0.91;100.00;104073.00;5004131;28;20052;-60
2022/01/13 03:47:44;;;;;;;93.20;22.85;;;;;;;0.96;100.00;104076.31;5005827;28;20121;-60
2022/01/13 03:50:09;;;;;;;71.43;20.98;;;;;;;0.94;100.00;104076.41;5002870;28;20408;-60
2022/01/13 03:53:15;;;;;;;68.57;23.33;;;;;;;0.97;100.00;104072.66;5004842;28;20037;-61
2022/01/13 03:56:18;;;;;;;87.07;25.33;;;;;;;1.15;100.00;104073.41;5005861;28;20057;-60
2022/01/13 03:59:36;;;;;;;86.95;22.13;;;;;;;0.99;100.00;104081.56;5003642;28;20118;-61
2022/01/13 04:02:06;;;;;;;82.68;21.25;;;;;;;0.91;100.00;104081.09;4998436;28;20026;-61
2022/01/13 04:04:40;;;;;;;101.70;24.42;;;;;;;0.88;100.00;104071.34;5003566;28;20396;-62
2022/01/13 04:07:12;;;;;;;79.93;21.88;;;;;;;0.83;100.00;104081.56;5004363;28;20149;-61
2022/01/13 04:09:40;;;;;;;94.03;22.13;;;;;;;0.83;100.00;104086.09;5004207;28;20395;-61
2022/01/13 04:12:08;;;;;;;101.38;21.27;;;;;;;0.83;100.00;104086.97;5005458;28;20441;-61
2022/01/13 04:17:06;;;;;;;86.60;21.25;;;;;;;0.81;100.00;104071.78;5004970;28;20042;-60
2022/01/13 04:19:32;;;;;;;80.43;22.52;;;;;;;0.76;100.00;104074.75;5004825;28;20067;-62
2022/01/13 04:21:57;;;;;;;93.82;24.02;;;;;;;0.76;100.00;104074.75;5005164;28;20117;-60
2022/01/13 04:24:23;;;;;;;64.32;23.15;;;;;;;0.79;100.00;104074.56;5002823;28;20018;-61
2022/01/13 04:26:48;;;;;;;79.22;23.05;;;;;;;0.78;100.00;104076.41;5002687;28;20045;-60
2022/01/13 04:31:40;;;;;;;70.60;20.85;;;;;;;0.82;100.00;104071.72;5005410;28;20137;-60
2022/01/13 04:34:06;;;;;;;60.03;20.52;;;;;;;0.83;100.00;104065.34;5003843;28;20030;-60
2022/01/13 04:36:32;;;;;;;82.53;22.70;;;;;;;0.84;100.00;104058.94;5002831;28;20044;-62
2022/01/13 04:38:57;;;;;;;73.80;23.38;;;;;;;0.87;100.00;104056.09;5004070;28;20510;-60
2022/01/13 04:41:32;;;;;;;74.45;24.35;;;;;;;0.90;100.00;104065.84;5004445;28;20147;-60
2022/01/13 04:43:58;;;;;;;80.13;22.80;;;;;;;0.89;100.00;104059.56;5005147;28;20404;-60
2022/01/13 04:46:24;;;;;;;77.75;21.95;;;;;;;0.91;100.00;104063.06;5003379;28;20037;-60
2022/01/13 04:48:49;;;;;;;72.38;23.80;;;;;;;0.91;100.00;104067.59;5003862;28;20474;-60
2022/01/13 04:51:15;;;;;;;80.80;24.08;;;;;;;0.88;100.00;104062.38;5000765;28;20060;-60
2022/01/13 04:53:40;;;;;;;89.35;24.60;;;;;;;0.89;100.00;104062.28;5003498;28;20763;-61
2022/01/13 04:56:11;;;;;;;78.18;24.73;;;;;;;0.89;100.00;104064.09;5004836;28;20030;-61
2022/01/13 04:58:36;;;;;;;83.18;24.15;;;;;;;0.89;100.00;104070.38;5003038;28;20565;-61
2022/01/13 05:01:03;;;;;;;83.82;22.80;;;;;;;0.87;100.00;104058.78;5002209;28;20035;-62
2022/01/13 05:03:28;;;;;;;86.05;26.02;;;;;;;0.85;100.00;104060.69;5004080;28;20053;-61
2022/01/13 05:05:53;;;;;;;88.00;26.38;;;;;;;0.83;100.00;104065.34;5004893;28;20045;-60
2022/01/13 05:08:18;;;;;;;83.55;24.63;;;;;;;0.85;100.00;104057.13;5003533;28;20022;-60
2022/01/13 05:10:44;;;;;;;82.50;25.42;;;;;;;0.85;100.00;104063.41;5003720;28;20531;-60
2022/01/13 05:13:11;;;;;;;75.65;24.92;;;;;;;0.86;100.00;104059.72;5004410;28;20022;-61
2022/01/13 05:15:38;;;;;;;78.13;24.35;;;;;;;0.89;100.00;104075.78;5002116;28;21763;-60
2022/01/13 05:20:47;;;;;;;85.00;26.67;;;;;;;0.92;100.00;104075.63;5002252;28;20061;-61
2022/01/13 05:23:13;;;;;;;82.43;25.92;;;;;;;0.93;100.00;104077.38;4999637;28;20049;-61
2022/01/13 05:25:39;;;;;;;83.97;26.27;;;;;;;0.93;100.00;104081.91;5002563;28;20061;-60
2022/01/13 05:28:05;;;;;;;104.15;25.85;;;;;;;0.91;100.00;104070.28;5002298;28;20026;-60
2022/01/13 05:30:31;;;;;;;94.93;25.60;;;;;;;0.87;100.00;104075.03;5004565;28;20061;-61
2022/01/13 05:32:57;;;;;;;95.68;25.73;;;;;;;0.83;100.00;104072.59;5002377;28;20421;-60
2022/01/13 05:35:24;;;;;;;95.72;25.35;;;;;;;0.85;100.00;104068.81;4999927;28;20131;-60
2022/01/13 05:37:49;;;;;;;116.13;27.67;;;;;;;0.85;100.00;104057.13;5001197;28;20099;-61
2022/01/13 05:40:14;;;;;;;115.63;25.85;;;;;;;0.84;100.00;104063.50;5004416;28;20492;-60
2022/01/13 05:42:40;;;;;;;96.13;23.20;;;;;;;0.85;100.00;104068.81;5003067;28;20034;-61
2022/01/13 05:45:14;;;;;;;97.97;28.08;;;;;;;0.83;100.00;104067.16;5001272;28;20022;-61
2022/01/13 05:47:41;;;;;;;99.47;26.98;;;;;;;0.82;100.00;104070.84;5003052;28;20113;-61
2022/01/13 05:50:08;;;;;;;107.47;25.33;;;;;;;0.82;100.00;104071.72;5004031;28;20026;-61
2022/01/13 05:52:33;;;;;;;94.65;25.45;;;;;;;0.83;100.00;104075.28;5002508;28;21155;-61
2022/01/13 05:54:58;;;;;;;91.15;26.08;;;;;;;0.85;100.00;104074.22;5002879;28;20061;-61
2022/01/13 05:57:23;;;;;;;99.18;26.35;;;;;;;0.86;100.00;104064.28;5002719;28;20155;-61
2022/01/13 05:59:49;;;;;;;103.97;26.13;;;;;;;0.84;100.00;104066.19;5003236;28;20045;-61
2022/01/13 06:02:14;;;;;;;95.45;26.00;;;;;;;0.84;100.00;104072.47;5001902;28;20034;-61
2022/01/13 06:04:39;;;;;;;88.13;24.40;;;;;;;0.88;100.00;104068.66;5002580;28;20129;-61
2022/01/13 06:07:05;;;;;;;125.88;27.20;;;;;;;0.84;100.00;104072.47;5002047;28;20026;-61
2022/01/13 06:09:30;;;;;;;92.60;25.45;;;;;;;0.83;100.00;104069.88;5003218;28;20164;-61
2022/01/13 06:11:59;;;;;;;85.63;24.65;;;;;;;0.85;100.00;104074.22;5002760;28;20030;-61
2022/01/13 06:14:24;;;;;;;98.38;26.40;;;;;;;0.84;100.00;104072.47;5003057;28;20026;-61
2022/01/13 06:16:49;;;;;;;96.13;25.13;;;;;;;0.83;100.00;104070.75;5001124;28;20038;-61
2022/01/13 06:19:14;;;;;;;114.45;27.40;;;;;;;0.86;100.00;104066.97;5002968;28;20069;-61
2022/01/13 06:21:40;;;;;;;119.57;27.13;;;;;;;0.86;100.00;104070.53;5003728;28;20022;-61
2022/01/13 06:24:05;;;;;;;100.88;26.63;;;;;;;0.88;100.00;104068.66;5002251;28;20047;-61
2022/01/13 06:26:30;;;;;;;109.68;27.60;;;;;;;0.90;100.00;104066.72;5003100;28;20112;-61
2022/01/13 06:28:56;;;;;;;111.60;27.58;;;;;;;0.90;100.00;104072.13;5002581;28;20034;-61
2022/01/13 06:31:21;;;;;;;117.22;27.35;;;;;;;0.92;100.00;104074.75;5001946;28;20034;-61
2022/01/13 06:33:46;;;;;;;101.97;26.92;;;;;;;0.95;100.00;104066.44;5003042;28;20030;-61
2022/01/13 06:36:11;;;;;;;104.22;26.25;;;;;;;0.99;100.00;104065.31;5001814;28;20076;-61
2022/01/13 06:38:37;;;;;;;118.50;26.45;;;;;;;0.96;100.00;104071.78;5002406;28;20048;-61
2022/01/13 06:41:02;;;;;;;119.18;27.50;;;;;;;0.96;100.00;104066.38;5007278;28;20420;-63
2022/01/13 06:43:28;;;;;;;116.82;25.38;;;;;;;0.97;100.00;104064.53;5007352;28;20022;-61
2022/01/13 06:45:54;;;;;;;119.78;27.33;;;;;;;0.98;100.00;104060.88;5007477;28;21014;-61
2022/01/13 06:48:19;;;;;;;122.88;28.10;;;;;;;0.98;100.00;104059.03;5006211;28;20088;-61
2022/01/13 06:50:45;;;;;;;105.95;26.83;;;;;;;1.15;100.00;104062.59;5007790;28;20093;-61
2022/01/13 06:53:10;;;;;;;88.43;26.65;;;;;;;1.05;100.00;104059.53;5004945;28;20124;-61
2022/01/13 06:55:35;;;;;;;92.32;22.23;;;;;;;1.04;100.00;104057.81;5004674;28;20498;-61
2022/01/13 06:58:01;;;;;;;109.32;26.48;;;;;;;1.07;100.00;104057.63;5006706;28;20030;-60
2022/01/13 07:00:26;;;;;;;112.60;24.63;;;;;;;1.06;100.00;104063.97;5006978;28;20155;-61
2022/01/13 07:02:54;;;;;;;88.85;23.92;;;;;;;1.11;100.00;104064.59;5006124;28;20049;-61
2022/01/13 07:05:19;;;;;;;108.65;25.90;;;;;;;1.04;100.00;104066.78;5006203;28;20121;-61
2022/01/13 07:07:45;;;;;;;81.40;26.13;;;;;;;1.04;100.00;104050.56;5005049;28;20113;-60
2022/01/13 07:10:12;;;;;;;109.05;29.17;;;;;;;1.04;100.00;104064.09;5006085;28;20041;-61
2022/01/13 07:12:39;;;;;;;99.63;28.40;;;;;;;1.07;100.00;104059.47;5006685;28;20522;-61
2022/01/13 07:15:05;;;;;;;86.70;27.02;;;;;;;1.06;100.00;104055.00;5006030;28;20472;-61
2022/01/13 07:17:31;;;;;;;91.53;26.83;;;;;;;1.07;100.00;104060.34;5006346;28;20121;-61
2022/01/13 07:19:57;;;;;;;84.22;23.85;;;;;;;1.06;100.00;104053.16;5006672;28;20029;-61
2022/01/13 07:22:22;;;;;;;85.20;23.67;;;;;;;1.07;100.00;104051.34;5005773;28;20034;-61
2022/01/13 07:24:47;;;;;;;86.72;21.15;;;;;;;1.09;100.00;104055.69;5005662;28;20026;-61
2022/01/13 07:27:13;;;;;;;68.82;22.50;;;;;;;1.08;100.00;104061.22;5005541;28;20022;-61
2022/01/13 07:29:42;;;;;;;79.82;21.02;;;;;;;1.09;100.00;104058.41;5006324;28;20534;-61
2022/01/13 07:32:09;;;;;;;78.05;22.00;;;;;;;1.03;100.00;104056.94;5004721;28;20037;-61
2022/01/13 07:34:34;;;;;;;82.15;22.25;;;;;;;1.03;100.00;104062.34;5004954;28;20026;-61
2022/01/13 07:36:59;;;;;;;79.50;20.38;;;;;;;1.07;100.00;104064.88;5006615;28;20488;-61
2022/01/13 07:39:25;;;;;;;85.07;22.23;;;;;;;1.06;100.00;104063.13;5004263;28;20057;-61
2022/01/13 07:41:50;;;;;;;74.60;22.17;;;;;;;1.03;100.00;104059.63;5004876;28;20084;-61
2022/01/13 07:44:17;;;;;;;76.68;22.00;;;;;;;1.06;100.00;104057.69;5005659;28;20037;-61
2022/01/13 07:46:43;;;;;;;67.45;19.90;;;;;;;1.07;100.00;104056.78;5005231;28;20026;-61
2022/01/13 07:49:08;;;;;;;77.40;21.60;;;;;;;1.07;100.00;104054.94;5005628;28;20034;-61
2022/01/13 07:51:33;;;;;;;80.07;21.15;;;;;;;1.08;100.00;104059.38;5004064;28;20026;-61
2022/01/13 07:53:59;;;;;;;88.60;21.52;;;;;;;1.08;100.00;104058.50;5003879;28;20030;-61
2022/01/13 07:56:24;;;;;;;81.50;21.75;;;;;;;1.10;100.00;104059.28;5004544;28;20345;-61
2022/01/13 07:58:49;;;;;;;90.53;21.75;;;;;;;1.10;100.00;104068.25;5005122;28;20037;-61
2022/01/13 08:01:15;;;;;;;79.80;21.40;;;;;;;1.11;100.00;104079.97;5005772;28;20026;-61
2022/01/13 08:03:40;;;;;;;84.07;22.92;;;;;;;1.12;100.00;104077.19;5005526;28;20124;-61
2022/01/13 08:06:06;;;;;;;94.88;22.80;;;;;;;1.15;100.00;104081.53;5005248;28;20522;-60
2022/01/13 08:08:32;;;;;;;68.03;21.17;;;;;;;1.17;100.00;104079.63;5004038;28;20037;-63
2022/01/13 08:10:59;;;;;;;81.47;21.52;;;;;;;1.19;100.00;104075.00;5004500;28;20117;-64
2022/01/13 08:13:24;;;;;;;67.95;22.60;;;;;;;1.23;100.00;104081.97;5004562;28;20381;-63
2022/01/13 08:15:52;;;;;;;82.75;21.42;;;;;;;1.25;100.00;104080.03;5003740;28;20032;-62
2022/01/13 08:21:01;;;;;;;76.78;21.02;;;;;;;1.25;100.00;104085.44;5004072;28;20048;-63
2022/01/13 08:23:27;;;;;;;85.28;21.13;;;;;;;1.26;100.00;104079.06;4996258;28;20033;-64
2022/01/13 08:25:52;;;;;;;99.50;22.60;;;;;;;1.25;100.00;104085.44;5003104;28;20030;-63
2022/01/13 08:28:18;;;;;;;82.82;22.08;;;;;;;1.26;100.00;104085.34;5002590;28;20052;-63
2022/01/13 08:30:44;;;;;;;69.93;21.40;;;;;;;1.28;100.00;104090.69;4995426;28;20034;-63
2022/01/13 08:33:09;;;;;;;99.13;22.80;;;;;;;1.31;100.00;104098.63;4994150;28;20030;-63
2022/01/13 08:35:34;;;;;;;81.40;21.67;;;;;;;1.36;100.00;104098.34;4994419;28;22035;-63
2022/01/13 08:38:06;;;;;;;69.45;21.45;;;;;;;1.38;100.00;104104.56;4996726;28;20326;-63
2022/01/13 08:40:34;;;;;;;101.20;24.50;;;;;;;1.37;100.00;104102.81;4997719;28;20038;-63
2022/01/13 08:42:59;;;;;;;83.15;21.73;;;;;;;1.39;100.00;104104.47;4999935;28;20026;-63
2022/01/13 08:45:25;;;;;;;78.18;20.60;;;;;;;1.40;100.00;104113.47;4994492;28;20030;-63
2022/01/13 08:47:50;;;;;;;61.80;21.05;;;;;;;1.42;100.00;104109.72;5003724;28;20787;-63
2022/01/13 08:50:15;;;;;;;75.35;21.27;;;;;;;1.44;100.00;104102.38;5002008;28;20025;-63
2022/01/13 08:52:41;;;;;;;75.90;20.17;;;;;;;1.43;100.00;104103.34;4996288;28;20034;-63
2022/01/13 08:55:08;;;;;;;61.00;20.58;;;;;;;1.48;100.00;104106.63;4990860;28;20498;-62
2022/01/13 08:57:34;;;;;;;63.00;20.10;;;;;;;1.52;100.00;104107.31;4995785;28;20132;-63
2022/01/13 08:59:59;;;;;;;66.88;20.33;;;;;;;1.55;100.00;104107.13;4997267;28;20171;-62
2022/01/13 09:02:24;;;;;;;76.18;20.25;;;;;;;1.57;100.00;104105.19;4993781;28;20061;-62
2022/01/13 09:04:50;;;;;;;60.60;21.23;;;;;;;1.63;100.00;104117.53;4997256;28;20058;-62
2022/01/13 09:07:15;;;;;;;62.90;19.13;;;;;;;1.61;100.00;104106.75;4994930;28;20064;-62
2022/01/13 09:09:40;;;;;;;68.10;22.42;;;;;;;1.63;100.00;104109.41;4993836;28;20044;-62
2022/01/13 09:12:06;;;;;;;68.28;18.65;;;;;;;1.63;100.00;104110.28;4992452;28;20042;-63
2022/01/13 09:14:32;;;;;;;73.93;19.50;;;;;;;1.64;100.00;104114.72;4995263;28;20459;-63
2022/01/13 09:16:58;;;;;;;55.75;19.40;;;;;;;1.66;100.00;104115.50;4993428;28;20510;-62
2022/01/13 09:19:24;;;;;;;54.17;18.50;;;;;;;1.72;100.00;104114.25;4990007;28;20048;-62
2022/01/13 09:21:52;;;;;;;65.30;19.38;;;;;;;1.73;100.00;104119.59;4991762;28;20045;-62
2022/01/13 09:24:20;;;;;;;54.25;19.08;;;;;;;1.76;100.00;104121.22;4989882;28;20138;-62
2022/01/13 09:26:46;;;;;;;57.25;19.30;;;;;;;1.79;100.00;104115.63;4991619;28;20099;-62
2022/01/13 09:29:12;;;;;;;53.50;17.17;;;;;;;1.83;100.00;104109.06;4995525;28;20025;-62
2022/01/13 09:31:40;;;;;;;46.63;17.58;;;;;;;1.88;100.00;104112.38;4990674;28;20022;-62
2022/01/13 09:34:07;;;;;;;62.75;18.85;;;;;;;1.87;100.00;104116.03;4995836;28;20026;-62
2022/01/13 09:36:33;;;;;;;59.50;18.30;;;;;;;1.88;100.00;104111.50;5017841;28;20552;-63
2022/01/13 09:39:01;;;;;;;65.50;18.50;;;;;;;1.90;100.00;104106.84;4993000;28;20164;-62
2022/01/13 09:41:30;;;;;;;74.18;20.10;;;;;;;1.90;100.00;104114.97;4991464;28;20049;-62
2022/01/13 09:44:00;;;;;;;67.68;20.88;;;;;;;1.94;100.00;104120.13;4995054;28;20037;-62
2022/01/13 09:46:27;;;;;;;65.85;19.27;;;;;;;1.96;100.00;104120.03;4990727;28;20034;-62
2022/01/13 09:48:54;;;;;;;49.80;19.10;;;;;;;1.95;100.00;104124.56;4993416;28;20045;-62
2022/01/13 09:51:23;;;;;;;72.47;22.20;;;;;;;1.99;100.00;104127.97;4987596;28;20032;-62
2022/01/13 09:53:48;;;;;;;73.68;22.05;;;;;;;1.99;100.00;104117.13;4988015;28;20034;-62
2022/01/13 09:56:14;;;;;;;70.40;21.55;;;;;;;2.03;100.00;104124.13;4990459;28;20178;-63
2022/01/13 09:58:43;;;;;;;77.35;23.05;;;;;;;2.07;100.00;104126.53;4994109;28;20058;-62
2022/01/13 10:01:09;;;;;;;62.20;19.08;;;;;;;2.06;100.00;104124.78;4992857;28;20042;-62
2022/01/13 10:03:34;;;;;;;60.63;18.85;;;;;;;2.07;100.00;104133.78;4996244;28;20024;-62
2022/01/13 10:06:01;;;;;;;59.13;18.85;;;;;;;2.13;100.00;104129.81;4994788;28;20058;-62
2022/01/13 10:08:50;;;;;;;60.33;19.43;;;;;;;2.12;100.00;104122.66;4994654;28;20050;-62
2022/01/13 10:11:44;;;;;;;68.07;20.13;;;;;;;2.05;100.00;104131.19;4990278;28;20044;-62
2022/01/13 10:16:55;;;;;;;67.75;19.65;;;;;;;2.06;100.00;104132.03;4998774;28;20050;-62
2022/01/13 10:19:26;;;;;;;;;;;;;;;2.08;100.00;104135.56;4998332;28;20033;-62
2022/01/13 10:22:16;;;;;;;66.20;19.88;;;;;;;2.04;100.00;104126.72;5000259;28;19944;-62
2022/01/13 10:24:44;;;;;;;69.72;19.45;;;;;;;2.02;100.00;104120.50;4985884;28;20112;-62
2022/01/13 10:27:15;;;;;;;63.42;21.58;;;;;;;2.10;100.00;104130.03;4991236;28;20026;-62
2022/01/13 10:29:44;;;;;;;68.43;21.60;;;;;;;2.10;100.00;104120.06;4995224;28;20041;-62
2022/01/13 10:32:12;;;;;;;65.70;21.58;;;;;;;2.21;100.00;104113.97;5000021;28;20026;-62
2022/01/13 10:34:40;;;;;;;60.70;21.77;;;;;;;2.20;100.00;104117.66;4995001;28;20032;-62
2022/01/13 10:37:06;;;;;;;;;;;;;;;2.33;100.00;104111.38;4991344;28;20067;-62
2022/01/13 10:39:44;;;;;;;59.10;21.67;;;;;;;2.31;100.00;104112.41;4991446;28;20200;-62
2022/01/13 10:42:31;;;;;;;65.97;23.15;;;;;;;2.34;100.00;104112.25;4993912;28;20368;-62
2022/01/13 10:44:58;;;;;;;68.13;22.23;;;;;;;2.36;100.00;104110.28;4995524;28;20030;-62
2022/01/13 10:47:23;;;;;;;67.97;21.30;;;;;;;2.34;100.00;104112.25;4990971;28;20432;-62
2022/01/13 10:49:50;;;;;;;63.75;23.80;;;;;;;2.38;100.00;104113.75;4989731;28;20034;-62
2022/01/13 10:52:24;;;;;;;62.72;24.00;;;;;;;2.39;100.00;104104.69;4990563;28;20052;-62
2022/01/13 10:54:59;;;;;;;68.03;25.50;;;;;;;2.39;100.00;104106.53;4998638;28;20034;-62
2022/01/13 10:57:25;;;;;;;66.75;24.35;;;;;;;2.45;100.00;104108.84;5003029;28;20030;-62
2022/01/13 10:59:51;;;;;;;72.95;24.23;;;;;;;2.46;100.00;104106.03;4991613;28;20037;-62
2022/01/13 11:02:21;;;;;;;76.78;27.25;;;;;;;2.51;100.00;104095.75;5002638;28;20030;-62
2022/01/13 11:04:47;;;;;;;67.53;26.45;;;;;;;2.44;100.00;104090.84;4999101;28;20403;-62
2022/01/13 11:07:13;;;;;;;84.55;24.90;;;;;;;2.42;100.00;104099.03;5001698;28;20030;-62
2022/01/13 11:09:42;;;;;;;73.28;26.20;;;;;;;2.46;100.00;104089.75;5003459;28;20126;-62
2022/01/13 11:12:10;;;;;;;66.75;24.17;;;;;;;2.51;100.00;104086.75;5003488;28;20045;-62
2022/01/13 11:14:41;;;;;;;73.80;26.23;;;;;;;2.54;100.00;104095.56;5002557;28;20030;-62
2022/01/13 11:17:07;;;;;;;62.47;22.88;;;;;;;2.58;100.00;104091.66;5001915;28;20069;-63
2022/01/13 11:19:34;;;;;;;74.22;26.42;;;;;;;2.57;100.00;104087.22;4999649;28;20120;-62
2022/01/13 11:21:59;;;;;;;68.22;23.95;;;;;;;2.72;100.00;104073.63;4997476;28;20022;-61
2022/01/13 11:24:25;;;;;;;61.90;23.35;;;;;;;2.65;100.00;104083.16;5001234;28;20022;-62
2022/01/13 11:26:50;;;;;;;58.58;22.00;;;;;;;2.70;100.00;104083.72;4996091;28;20034;-62
2022/01/13 11:29:17;;;;;;;73.50;24.08;;;;;;;2.76;100.00;104086.03;5006264;28;20022;-62
2022/01/13 11:31:42;;;;;;;70.72;24.98;;;;;;;2.75;100.00;104071.59;5006469;28;20026;-62
2022/01/13 11:34:08;;;;;;;62.38;24.42;;;;;;;2.77;100.00;104071.47;5001758;28;20026;-62
2022/01/13 11:36:35;;;;;;;91.40;24.60;;;;;;;2.79;100.00;104065.00;5003437;28;20065;-62
2022/01/13 11:39:05;;;;;;;68.25;25.17;;;;;;;2.83;100.00;104060.22;5005890;28;20373;-62
2022/01/13 11:41:30;;;;;;;71.13;24.80;;;;;;;2.86;100.00;104060.03;5002931;28;20022;-62
2022/01/13 11:44:12;;;;;;;69.57;24.10;;;;;;;2.85;100.00;104061.88;4997611;28;20045;-62